Map

Track Data

SID SEASON NUMBER BASIN SUBBASIN NAME ISO_TIME NATURE LAT LON WMO_WIND WMO_PRES WMO_AGENCY TRACK_TYPE DIST2LAND LANDFALL IFLAG USA_AGENCY USA_ATCF_ID USA_LAT USA_LON USA_RECORD USA_STATUS USA_WIND USA_PRES USA_SSHS USA_R34_NE USA_R34_SE USA_R34_SW USA_R34_NW USA_R50_NE USA_R50_SE USA_R50_SW USA_R50_NW USA_R64_NE USA_R64_SE USA_R64_SW USA_R64_NW USA_POCI USA_ROCI USA_RMW USA_EYE TOKYO_LAT TOKYO_LON TOKYO_GRADE TOKYO_WIND TOKYO_PRES TOKYO_R50_DIR TOKYO_R50_LONG TOKYO_R50_SHORT TOKYO_R30_DIR TOKYO_R30_LONG TOKYO_R30_SHORT TOKYO_LAND CMA_LAT CMA_LON CMA_CAT CMA_WIND CMA_PRES HKO_LAT HKO_LON HKO_CAT HKO_WIND HKO_PRES NEWDELHI_LAT NEWDELHI_LON NEWDELHI_GRADE NEWDELHI_WIND NEWDELHI_PRES NEWDELHI_CI NEWDELHI_DP NEWDELHI_POCI REUNION_LAT REUNION_LON REUNION_TYPE REUNION_WIND REUNION_PRES REUNION_TNUM REUNION_CI REUNION_RMW REUNION_R34_NE REUNION_R34_SE REUNION_R34_SW REUNION_R34_NW REUNION_R50_NE REUNION_R50_SE REUNION_R50_SW REUNION_R50_NW REUNION_R64_NE REUNION_R64_SE REUNION_R64_SW REUNION_R64_NW BOM_LAT BOM_LON BOM_TYPE BOM_WIND BOM_PRES BOM_TNUM BOM_CI BOM_RMW BOM_R34_NE BOM_R34_SE BOM_R34_SW BOM_R34_NW BOM_R50_NE BOM_R50_SE BOM_R50_SW BOM_R50_NW BOM_R64_NE BOM_R64_SE BOM_R64_SW BOM_R64_NW BOM_ROCI BOM_POCI BOM_EYE BOM_POS_METHOD BOM_PRES_METHOD NADI_LAT NADI_LON NADI_CAT NADI_WIND NADI_PRES WELLINGTON_LAT WELLINGTON_LON WELLINGTON_WIND WELLINGTON_PRES DS824_LAT DS824_LON DS824_STAGE DS824_WIND DS824_PRES TD9636_LAT TD9636_LON TD9636_STAGE TD9636_WIND TD9636_PRES TD9635_LAT TD9635_LON TD9635_WIND TD9635_PRES TD9635_ROCI NEUMANN_LAT NEUMANN_LON NEUMANN_CLASS NEUMANN_WIND NEUMANN_PRES MLC_LAT MLC_LON MLC_CLASS MLC_WIND MLC_PRES USA_GUST BOM_GUST BOM_GUST_PER REUNION_GUST REUNION_GUST_PER USA_SEAHGT USA_SEARAD_NE USA_SEARAD_SE USA_SEARAD_SW USA_SEARAD_NW STORM_SPEED STORM_DIR
1998285N14068 1998 86 NI AS NOT_NAMED 1998-10-11 12:00:00 NR 14.0000 67.5000 25 1002 newdelhi main 682 682 ____O_________ -1 14.0000 67.5000 D 25 1002 1.50000 4 15 320
1998285N14068 1998 86 NI AS NOT_NAMED 1998-10-11 15:00:00 NR 14.5684 67.0008 main 707 707 ____P_________ -1 14.5684 67.0008 D 25 1002 4 14 316
1998285N14068 1998 86 NI AS NOT_NAMED 1998-10-11 18:00:00 NR 15.0000 66.5000 25 1002 newdelhi main 747 747 ____O_________ -1 15.0000 66.5000 D 25 1002 1.50000 4 11 304
1998285N14068 1998 86 NI AS NOT_NAMED 1998-10-11 21:00:00 NR 15.1703 66.0619 main 784 784 ____P_________ -1 15.1703 66.0619 D 25 1001 4 5 270
1998285N14068 1998 86 NI AS NOT_NAMED 1998-10-12 00:00:00 NR 15.0000 66.0000 25 1000 newdelhi main 799 759 ____O_________ -1 15.0000 66.0000 D 25 1000 1.50000 4 8 148
1998285N14068 1998 86 NI AS NOT_NAMED 1998-10-12 03:00:00 NR 14.5000 66.5000 25 1000 newdelhi main 762 762 ____O_________ -1 14.5000 66.5000 D 25 1000 1.50000 4 10 179
1998285N14068 1998 86 NI AS NOT_NAMED 1998-10-12 06:00:00 NR 14.0000 66.0000 25 1000 newdelhi main 831 762 ____O_________ -1 14.0000 66.0000 D 25 1000 1.50000 4 0 0
1998285N14068 1998 86 NI AS NOT_NAMED 1998-10-12 09:00:00 NR 14.5000 66.5000 30 998 newdelhi main 762 759 ____O_________ -1 14.5000 66.5000 DD 30 998 2.00000 6 10 1
1998285N14068 1998 86 NI AS NOT_NAMED 1998-10-12 12:00:00 NR 15.0000 66.0000 30 998 newdelhi main 799 799 ____O_________ -1 15.0000 66.0000 DD 30 998 2.00000 6 10 307
1998285N14068 1998 86 NI AS NOT_NAMED 1998-10-12 15:00:00 NR 15.1022 65.6644 main 822 822 ____P_________ -1 15.1022 65.6644 DD 30 998 6 5 270
1998285N14068 1998 86 NI AS NOT_NAMED 1998-10-12 18:00:00 NR 15.0000 65.5000 30 998 newdelhi main 844 843 ____O_________ -1 15.0000 65.5000 DD 30 998 2.00000 6 2 206
1998285N14068 1998 86 NI AS NOT_NAMED 1998-10-12 21:00:00 NR 14.8976 65.5679 main 843 843 ____P_________ -1 14.8976 65.5679 DD 30 998 6 0 0
1998285N14068 1998 86 NI AS NOT_NAMED 1998-10-13 00:00:00 NR 15.0000 65.5000 30 998 newdelhi main 844 825 ____O_________ -1 15.0000 65.5000 DD 30 998 2.00000 6 8 318
1998285N14068 1998 86 NI AS NOT_NAMED 1998-10-13 03:00:00 NR 15.5000 65.0000 30 998 newdelhi main 832 812 ____O_________ -1 15.5000 65.0000 DD 30 998 1.50000 6 11 297
1998285N14068 1998 86 NI AS NOT_NAMED 1998-10-13 06:00:00 NR 15.5000 64.5000 30 998 newdelhi main 812 773 ____O_________ -1 15.5000 64.5000 DD 30 998 1.50000 6 8 286
1998285N14068 1998 86 NI AS NOT_NAMED 1998-10-13 09:00:00 NR 15.7328 64.1650 main 773 738 ____P_________ -1 15.7328 64.1650 DD 27 998 6 7 316
1998285N14068 1998 86 NI AS NOT_NAMED 1998-10-13 12:00:00 NR 16.0000 64.0000 25 998 newdelhi main 738 738 ____O_________ -1 16.0000 64.0000 DD 25 998 1.50000 6 3 329
1998285N14068 1998 86 NI AS NOT_NAMED 1998-10-13 15:00:00 NR 15.9999 63.9998 main 738 738 ____P_________ -1 15.9999 63.9998 DD 25 999 5 0 0
1998285N14068 1998 86 NI AS NOT_NAMED 1998-10-13 18:00:00 NR 16.0000 64.0000 25 1000 newdelhi main 738 708 ____O_________ -1 16.0000 64.0000 D 25 1000 1.50000 4 2 316
1998285N14068 1998 86 NI AS NOT_NAMED 1998-10-13 21:00:00 NR 16.1647 63.8350 main 708 665 ____P_________ -1 16.1647 63.8350 D 25 1001 4 7 316
1998285N14068 1998 86 NI AS NOT_NAMED 1998-10-14 00:00:00 NR 16.5000 63.5000 25 1002 newdelhi main 665 593 ____O_________ -1 16.5000 63.5000 D 25 1002 1.50000 4 12 316
1998285N14068 1998 86 NI AS NOT_NAMED 1998-10-14 03:00:00 NR 17.0000 63.0000 25 1004 newdelhi main 593 545 ____O_________ -1 17.0000 63.0000 D 25 1004 1.50000 4 11 298
1998285N14068 1998 86 NI AS NOT_NAMED 1998-10-14 06:00:00 NR 17.0000 62.5000 25 1004 newdelhi main 545 502 ____O_________ -1 17.0000 62.5000 D 25 1004 1.50000 4 8 292
1998285N14068 1998 86 NI AS NOT_NAMED 1998-10-14 09:00:00 NR 17.3008 62.2335 main 502 474 ____P_________ -1 17.3008 62.2335 D 25 1004 4 7 316
1998285N14068 1998 86 NI AS NOT_NAMED 1998-10-14 12:00:00 NR 17.5000 62.0000 25 1004 newdelhi main 474 435 ____O_________ -1 17.5000 62.0000 D 25 1004 1.50000 4 9 253
1998285N14068 1998 86 NI AS NOT_NAMED 1998-10-14 15:00:00 NR 17.0378 61.3483 main 432 425 ____P_________ -1 17.0378 61.3482 D 25 1002 4 14 224
1998285N14068 1998 86 NI AS NOT_NAMED 1998-10-14 18:00:00 NR 16.5000 61.0000 25 1000 newdelhi main 439 439 ____O_________ -1 16.5000 61.0000 D 25 1000 1.50000 4 6 152
1998285N14068 1998 86 NI AS NOT_NAMED 1998-10-14 21:00:00 NR 16.5350 61.6301 main 490 490 ____P_________ -1 16.5350 61.6301 D 25 1000 4 14 85
1998285N14068 1998 86 NI AS NOT_NAMED 1998-10-15 00:00:00 NR 16.6200 62.4400 25 1000 newdelhi main 556 556 O___O_________ jtwc_io IO051998 17.1000 62.2000 20 -1 16.5000 62.5000 D 25 1000 1.50000 4 12 98
1998285N14068 1998 86 NI AS NOT_NAMED 1998-10-15 03:00:00 NR 16.3659 62.8683 25 1000 newdelhi main 613 613 P___O_________ IO051998 17.0977 62.6050 22 -1 16.0000 63.0000 D 25 1000 1.50000 4 8 100
1998285N14068 1998 86 NI AS NOT_NAMED 1998-10-15 06:00:00 NR 16.4714 63.2857 25 998 newdelhi main 646 646 O___O_________ jtwc_io IO051998 17.1000 63.0000 25 -1 16.0000 63.5000 D 25 998 1.50000 4 8 67
1998285N14068 1998 86 NI AS NOT_NAMED 1998-10-15 09:00:00 NR 16.6701 63.6100 main 665 665 P___P_________ IO051998 17.1073 63.3849 25 -1 16.2328 63.8350 D 27 996 5 7 61
1998285N14068 1998 86 NI AS NOT_NAMED 1998-10-15 12:00:00 NR 16.8000 63.9000 30 994 newdelhi main 690 690 O___O_________ jtwc_io IO051998 17.1000 63.8000 25 -1 16.5000 64.0000 DD 30 994 2.00000 6 5 79
1998285N14068 1998 86 NI AS NOT_NAMED 1998-10-15 15:00:00 NR 16.7675 64.1465 main 710 710 P___P_________ IO051998 17.0350 64.2927 25 -1 16.4999 64.0002 DD 30 995 6 5 96
1998285N14068 1998 86 NI AS NOT_NAMED 1998-10-15 18:00:00 NR 16.7500 64.4000 30 996 newdelhi main 740 740 O___O_________ jtwc_io IO051998 17.0000 64.8000 25 -1 16.5000 64.0000 DD 30 996 2.00000 6 6 76
1998285N14068 1998 86 NI AS NOT_NAMED 1998-10-15 21:00:00 NR 16.9109 64.7435 main 742 696 P___P_________ IO051998 17.0546 65.2202 30 -1 16.7672 64.2667 DD 30 996 6 8 62
1998285N14068 1998 86 NI AS NOT_NAMED 1998-10-16 00:00:00 NR 17.1000 65.1000 30 996 newdelhi main 696 665 O___O_________ jtwc_io IO051998 17.2000 65.7000 35 0 17.0000 64.5000 DD 30 996 2.00000 6 7 66
1998285N14068 1998 86 NI AS NOT_NAMED 1998-10-16 03:00:00 NR 17.2063 65.4313 30 996 newdelhi main 665 512 P___O_________ IO051998 17.4126 66.3626 35 0 17.0000 64.5000 DD 30 996 2.00000 6 17 54
1998285N14068 1998 86 NI AS NOT_NAMED 1998-10-16 06:00:00 NR 18.1000 66.5500 30 998 newdelhi main 504 405 O___O_________ jtwc_io IO051998 17.7000 67.1000 35 0 18.5000 66.0000 DD 30 998 2.00000 6 24 57
1998285N14068 1998 86 NI AS NOT_NAMED 1998-10-16 09:00:00 NR 18.4915 67.5041 main 405 340 P___P_________ IO051998 18.0128 67.8673 35 0 18.9703 67.1409 DD 32 997 7 17 70
1998285N14068 1998 86 NI AS NOT_NAMED 1998-10-16 12:00:00 NR 18.7000 68.2500 35 996 newdelhi main 333 257 O___O_________ jtwc_io IO051998 18.4000 68.5000 35 0 19.0000 68.0000 CS 35 996 2.50000 8 15 61
1998285N14068 1998 86 NI AS NOT_NAMED 1998-10-16 15:00:00 NR 19.1960 68.8472 main 257 188 P___P_________ IO051998 18.8921 68.8328 35 0 19.4999 68.8616 CS 35 996 8 14 43
1998285N14068 1998 86 NI AS NOT_NAMED 1998-10-16 18:00:00 NR 19.7000 69.2500 35 996 newdelhi main 182 169 O___O_________ jtwc_io IO051998 19.4000 69.0000 35 0 20.0000 69.5000 CS 35 996 2.50000 8 8 27
1998285N14068 1998 86 NI AS NOT_NAMED 1998-10-16 21:00:00 NR 19.8725 69.2134 main 169 115 P___P_________ IO051998 19.8374 69.1726 35 0 19.9193 69.2678 CS 35 997 8 7 24
1998285N14068 1998 86 NI AS NOT_NAMED 1998-10-17 00:00:00 NR 20.3000 69.5333 35 998 newdelhi main 115 24 O___O_________ jtwc_io IO051998 20.2000 69.3000 35 0 20.5000 70.0000 CS 35 998 2.50000 8 13 40
1998285N14068 1998 86 NI AS NOT_NAMED 1998-10-17 03:00:00 NR 20.8840 70.1261 newdelhi main 24 24 P___O_________ IO051998 20.4800 69.4076 35 0 22.5000 73.0000 DD 0.00000 4 355
1998285N14068 1998 86 NI AS NOT_NAMED 1998-10-17 06:00:00 NR 20.7000 69.5000 main 83 61 O_____________ jtwc_io IO051998 20.7000 69.5000 35 0 5 272
1998285N14068 1998 86 NI AS NOT_NAMED 1998-10-17 09:00:00 NR 20.8999 69.5777 main 61 38 P_____________ IO051998 20.8999 69.5777 32 -1 4 25
1998285N14068 1998 86 NI AS NOT_NAMED 1998-10-17 12:00:00 NR 21.1000 69.7000 main 38 0 O_____________ jtwc_io IO051998 21.1000 69.7000 30 -1 6 35
1998285N14068 1998 86 NI AS NOT_NAMED 1998-10-17 15:00:00 NR 21.3650 69.9273 main 0 0 P_____________ IO051998 21.3650 69.9273 27 -1 7 43
1998285N14068 1998 86 NI AS NOT_NAMED 1998-10-17 18:00:00 NR 21.6000 70.2000 main 0 0 O_____________ jtwc_io IO051998 21.6000 70.2000 25 -1 6 53
1998285N14068 1998 86 NI AS NOT_NAMED 1998-10-17 21:00:00 NR 21.7325 70.4576 main 0 0 P_____________ IO051998 21.7325 70.4576 25 -1 5 67
1998285N14068 1998 86 NI AS NOT_NAMED 1998-10-18 00:00:00 NR 21.8000 70.7000 main 0 O_____________ jtwc_io IO051998 21.8000 70.7000 25 -1 5 73

About IBTrACS Database

This database is a web-friendly format of International Best Track Archive for Climate Stewardship (IBTrACS), a global best track data archive curated by NOAA dating back to 1842.

Updated: 2021-10-25